sensor_id;sensor_type;location;lat;lon;timestamp;P1;durP1;ratioP1;P2;durP2;ratioP2
41705;SDS011;27385;51.096;17.190;2023-02-15T00:01:53;67.00;;;29.30;;
41705;SDS011;27385;51.096;17.190;2023-02-15T00:04:24;81.50;;;30.80;;
41705;SDS011;27385;51.096;17.190;2023-02-15T00:07:15;72.80;;;32.80;;
41705;SDS011;27385;51.096;17.190;2023-02-15T00:09:47;75.00;;;33.90;;
41705;SDS011;27385;51.096;17.190;2023-02-15T00:12:18;81.60;;;34.90;;
41705;SDS011;27385;51.096;17.190;2023-02-15T00:14:49;90.20;;;33.50;;
41705;SDS011;27385;51.096;17.190;2023-02-15T00:17:20;77.40;;;34.80;;
41705;SDS011;27385;51.096;17.190;2023-02-15T00:19:52;81.90;;;35.70;;
41705;SDS011;27385;51.096;17.190;2023-02-15T00:22:23;86.90;;;37.50;;
41705;SDS011;27385;51.096;17.190;2023-02-15T00:24:54;80.90;;;36.10;;
41705;SDS011;27385;51.096;17.190;2023-02-15T00:27:25;87.70;;;36.30;;
41705;SDS011;27385;51.096;17.190;2023-02-15T00:29:56;78.20;;;32.20;;
41705;SDS011;27385;51.096;17.190;2023-02-15T00:32:27;90.20;;;36.10;;
41705;SDS011;27385;51.096;17.190;2023-02-15T00:34:57;85.80;;;34.50;;
41705;SDS011;27385;51.096;17.190;2023-02-15T00:37:28;93.60;;;39.80;;
41705;SDS011;27385;51.096;17.190;2023-02-15T00:39:59;97.80;;;39.60;;
41705;SDS011;27385;51.096;17.190;2023-02-15T00:42:30;98.30;;;41.20;;
41705;SDS011;27385;51.096;17.190;2023-02-15T00:45:01;101.00;;;43.20;;
41705;SDS011;27385;51.096;17.190;2023-02-15T00:47:33;120.30;;;46.10;;
41705;SDS011;27385;51.096;17.190;2023-02-15T00:50:05;112.90;;;45.00;;
41705;SDS011;27385;51.096;17.190;2023-02-15T00:52:37;128.20;;;49.50;;
41705;SDS011;27385;51.096;17.190;2023-02-15T00:55:08;113.70;;;45.10;;
41705;SDS011;27385;51.096;17.190;2023-02-15T00:57:39;114.30;;;45.80;;
41705;SDS011;27385;51.096;17.190;2023-02-15T01:02:44;101.60;;;42.30;;
41705;SDS011;27385;51.096;17.190;2023-02-15T01:05:15;113.50;;;45.20;;
41705;SDS011;27385;51.096;17.190;2023-02-15T01:07:46;110.70;;;45.80;;
41705;SDS011;27385;51.096;17.190;2023-02-15T01:10:17;106.60;;;44.10;;
41705;SDS011;27385;51.096;17.190;2023-02-15T01:12:48;109.60;;;46.10;;
41705;SDS011;27385;51.096;17.190;2023-02-15T01:15:20;111.20;;;45.70;;
41705;SDS011;27385;51.096;17.190;2023-02-15T01:17:52;102.90;;;45.50;;
41705;SDS011;27385;51.096;17.190;2023-02-15T01:20:24;100.50;;;42.10;;
41705;SDS011;27385;51.096;17.190;2023-02-15T01:22:57;114.00;;;47.20;;
41705;SDS011;27385;51.096;17.190;2023-02-15T01:25:28;89.90;;;39.60;;
41705;SDS011;27385;51.096;17.190;2023-02-15T01:27:59;88.90;;;38.00;;
41705;SDS011;27385;51.096;17.190;2023-02-15T01:30:30;101.30;;;39.20;;
41705;SDS011;27385;51.096;17.190;2023-02-15T01:33:02;93.70;;;39.60;;
41705;SDS011;27385;51.096;17.190;2023-02-15T01:35:33;92.00;;;39.60;;
41705;SDS011;27385;51.096;17.190;2023-02-15T01:38:05;97.20;;;41.00;;
41705;SDS011;27385;51.096;17.190;2023-02-15T01:40:36;98.40;;;41.70;;
41705;SDS011;27385;51.096;17.190;2023-02-15T01:43:10;95.20;;;43.40;;
41705;SDS011;27385;51.096;17.190;2023-02-15T01:45:41;90.00;;;39.50;;
41705;SDS011;27385;51.096;17.190;2023-02-15T01:48:17;87.60;;;38.20;;
41705;SDS011;27385;51.096;17.190;2023-02-15T01:50:54;94.00;;;37.70;;
41705;SDS011;27385;51.096;17.190;2023-02-15T01:53:30;82.70;;;37.70;;
41705;SDS011;27385;51.096;17.190;2023-02-15T01:56:06;85.90;;;32.80;;
41705;SDS011;27385;51.096;17.190;2023-02-15T01:58:40;75.00;;;33.30;;
41705;SDS011;27385;51.096;17.190;2023-02-15T02:01:12;81.20;;;36.00;;
41705;SDS011;27385;51.096;17.190;2023-02-15T02:03:47;74.80;;;33.50;;
41705;SDS011;27385;51.096;17.190;2023-02-15T02:06:26;69.10;;;30.30;;
41705;SDS011;27385;51.096;17.190;2023-02-15T02:08:57;85.00;;;35.80;;
41705;SDS011;27385;51.096;17.190;2023-02-15T02:11:28;74.80;;;32.60;;
41705;SDS011;27385;51.096;17.190;2023-02-15T02:13:59;79.50;;;32.40;;
41705;SDS011;27385;51.096;17.190;2023-02-15T02:16:33;81.80;;;37.10;;
41705;SDS011;27385;51.096;17.190;2023-02-15T02:24:57;89.30;;;38.20;;
41705;SDS011;27385;51.096;17.190;2023-02-15T02:27:47;103.50;;;46.00;;
41705;SDS011;27385;51.096;17.190;2023-02-15T02:30:33;109.80;;;47.60;;
41705;SDS011;27385;51.096;17.190;2023-02-15T02:33:29;100.80;;;42.70;;
41705;SDS011;27385;51.096;17.190;2023-02-15T02:38:45;99.90;;;43.60;;
41705;SDS011;27385;51.096;17.190;2023-02-15T02:41:34;99.40;;;41.00;;
41705;SDS011;27385;51.096;17.190;2023-02-15T02:44:16;98.90;;;41.10;;
41705;SDS011;27385;51.096;17.190;2023-02-15T02:46:50;99.20;;;42.10;;
41705;SDS011;27385;51.096;17.190;2023-02-15T02:49:31;100.30;;;43.70;;
41705;SDS011;27385;51.096;17.190;2023-02-15T02:52:04;103.40;;;40.90;;
41705;SDS011;27385;51.096;17.190;2023-02-15T02:54:35;96.80;;;41.80;;
41705;SDS011;27385;51.096;17.190;2023-02-15T02:57:06;109.20;;;44.10;;
41705;SDS011;27385;51.096;17.190;2023-02-15T02:59:40;108.00;;;45.00;;
41705;SDS011;27385;51.096;17.190;2023-02-15T03:02:15;108.30;;;44.40;;
41705;SDS011;27385;51.096;17.190;2023-02-15T03:04:50;111.70;;;45.40;;
41705;SDS011;27385;51.096;17.190;2023-02-15T03:07:31;114.10;;;46.60;;
41705;SDS011;27385;51.096;17.190;2023-02-15T03:10:06;115.50;;;47.40;;
41705;SDS011;27385;51.096;17.190;2023-02-15T03:12:39;107.80;;;45.90;;
41705;SDS011;27385;51.096;17.190;2023-02-15T03:15:10;105.00;;;43.90;;
41705;SDS011;27385;51.096;17.190;2023-02-15T03:17:46;99.50;;;42.90;;
41705;SDS011;27385;51.096;17.190;2023-02-15T03:20:21;98.60;;;39.70;;
41705;SDS011;27385;51.096;17.190;2023-02-15T03:22:57;102.10;;;41.80;;
41705;SDS011;27385;51.096;17.190;2023-02-15T03:25:32;96.30;;;41.30;;
41705;SDS011;27385;51.096;17.190;2023-02-15T03:28:08;92.00;;;36.20;;
41705;SDS011;27385;51.096;17.190;2023-02-15T03:30:42;100.40;;;39.70;;
41705;SDS011;27385;51.096;17.190;2023-02-15T03:33:17;91.80;;;36.30;;
41705;SDS011;27385;51.096;17.190;2023-02-15T03:35:52;87.00;;;36.70;;
41705;SDS011;27385;51.096;17.190;2023-02-15T03:38:28;84.80;;;37.00;;
41705;SDS011;27385;51.096;17.190;2023-02-15T03:41:01;95.10;;;38.10;;
41705;SDS011;27385;51.096;17.190;2023-02-15T03:43:40;79.30;;;33.00;;
41705;SDS011;27385;51.096;17.190;2023-02-15T03:46:19;89.50;;;32.60;;
41705;SDS011;27385;51.096;17.190;2023-02-15T03:48:58;78.70;;;31.20;;
41705;SDS011;27385;51.096;17.190;2023-02-15T03:51:36;69.80;;;29.30;;
41705;SDS011;27385;51.096;17.190;2023-02-15T03:54:13;72.60;;;30.70;;
41705;SDS011;27385;51.096;17.190;2023-02-15T03:57:06;67.20;;;25.60;;
41705;SDS011;27385;51.096;17.190;2023-02-15T03:59:56;60.10;;;25.00;;
41705;SDS011;27385;51.096;17.190;2023-02-15T04:02:50;61.70;;;26.20;;
41705;SDS011;27385;51.096;17.190;2023-02-15T04:05:34;51.10;;;21.20;;
41705;SDS011;27385;51.096;17.190;2023-02-15T04:08:05;59.40;;;24.10;;
41705;SDS011;27385;51.096;17.190;2023-02-15T04:10:36;57.20;;;23.00;;
41705;SDS011;27385;51.096;17.190;2023-02-15T04:13:29;56.80;;;22.00;;
41705;SDS011;27385;51.096;17.190;2023-02-15T04:16:01;56.60;;;22.40;;
41705;SDS011;27385;51.096;17.190;2023-02-15T04:18:32;57.90;;;21.90;;
41705;SDS011;27385;51.096;17.190;2023-02-15T04:21:22;51.30;;;20.10;;
41705;SDS011;27385;51.096;17.190;2023-02-15T04:24:12;50.80;;;20.60;;
41705;SDS011;27385;51.096;17.190;2023-02-15T04:27:00;51.20;;;18.90;;
41705;SDS011;27385;51.096;17.190;2023-02-15T04:29:32;47.80;;;19.50;;
41705;SDS011;27385;51.096;17.190;2023-02-15T04:32:03;49.40;;;20.60;;
41705;SDS011;27385;51.096;17.190;2023-02-15T04:34:35;49.10;;;19.40;;
41705;SDS011;27385;51.096;17.190;2023-02-15T04:37:05;58.90;;;23.60;;
41705;SDS011;27385;51.096;17.190;2023-02-15T04:39:36;52.00;;;20.90;;
41705;SDS011;27385;51.096;17.190;2023-02-15T04:42:07;52.00;;;23.10;;
41705;SDS011;27385;51.096;17.190;2023-02-15T04:44:38;51.90;;;19.90;;
41705;SDS011;27385;51.096;17.190;2023-02-15T04:47:09;49.10;;;20.70;;
41705;SDS011;27385;51.096;17.190;2023-02-15T04:49:40;51.70;;;21.40;;
41705;SDS011;27385;51.096;17.190;2023-02-15T04:52:11;49.80;;;21.10;;
41705;SDS011;27385;51.096;17.190;2023-02-15T04:54:43;48.70;;;21.30;;
41705;SDS011;27385;51.096;17.190;2023-02-15T04:57:14;52.30;;;21.50;;
41705;SDS011;27385;51.096;17.190;2023-02-15T04:59:45;54.20;;;20.40;;
41705;SDS011;27385;51.096;17.190;2023-02-15T05:02:16;53.90;;;26.00;;
41705;SDS011;27385;51.096;17.190;2023-02-15T05:04:47;46.10;;;19.90;;
41705;SDS011;27385;51.096;17.190;2023-02-15T05:07:18;61.40;;;23.70;;
41705;SDS011;27385;51.096;17.190;2023-02-15T05:09:49;63.40;;;21.90;;
41705;SDS011;27385;51.096;17.190;2023-02-15T05:12:20;57.20;;;23.50;;
41705;SDS011;27385;51.096;17.190;2023-02-15T05:14:50;54.90;;;22.20;;
41705;SDS011;27385;51.096;17.190;2023-02-15T05:17:21;54.40;;;22.70;;
41705;SDS011;27385;51.096;17.190;2023-02-15T05:19:53;51.80;;;22.30;;
41705;SDS011;27385;51.096;17.190;2023-02-15T05:22:24;57.80;;;24.00;;
41705;SDS011;27385;51.096;17.190;2023-02-15T05:24:55;57.80;;;22.00;;
41705;SDS011;27385;51.096;17.190;2023-02-15T05:27:43;54.10;;;22.40;;
41705;SDS011;27385;51.096;17.190;2023-02-15T05:30:32;54.80;;;23.60;;
41705;SDS011;27385;51.096;17.190;2023-02-15T05:33:03;61.20;;;25.10;;
41705;SDS011;27385;51.096;17.190;2023-02-15T05:35:34;58.10;;;24.00;;
41705;SDS011;27385;51.096;17.190;2023-02-15T05:38:05;59.30;;;24.00;;
41705;SDS011;27385;51.096;17.190;2023-02-15T05:40:36;57.10;;;23.80;;
41705;SDS011;27385;51.096;17.190;2023-02-15T05:43:07;61.20;;;25.10;;
41705;SDS011;27385;51.096;17.190;2023-02-15T05:45:38;54.80;;;23.40;;
41705;SDS011;27385;51.096;17.190;2023-02-15T05:48:09;58.20;;;24.80;;
41705;SDS011;27385;51.096;17.190;2023-02-15T05:50:40;57.50;;;23.70;;
41705;SDS011;27385;51.096;17.190;2023-02-15T05:53:11;53.70;;;23.80;;
41705;SDS011;27385;51.096;17.190;2023-02-15T05:55:42;61.90;;;25.30;;
41705;SDS011;27385;51.096;17.190;2023-02-15T05:58:13;58.20;;;24.60;;
41705;SDS011;27385;51.096;17.190;2023-02-15T06:00:43;57.50;;;24.60;;
41705;SDS011;27385;51.096;17.190;2023-02-15T06:03:14;59.50;;;24.40;;
41705;SDS011;27385;51.096;17.190;2023-02-15T06:05:45;56.90;;;23.30;;
41705;SDS011;27385;51.096;17.190;2023-02-15T06:08:16;66.20;;;27.50;;
41705;SDS011;27385;51.096;17.190;2023-02-15T06:10:48;52.20;;;22.50;;
41705;SDS011;27385;51.096;17.190;2023-02-15T06:13:21;57.20;;;25.10;;
41705;SDS011;27385;51.096;17.190;2023-02-15T06:15:52;66.10;;;26.90;;
41705;SDS011;27385;51.096;17.190;2023-02-15T06:18:24;63.60;;;25.60;;
41705;SDS011;27385;51.096;17.190;2023-02-15T06:20:58;66.20;;;27.10;;
41705;SDS011;27385;51.096;17.190;2023-02-15T06:23:29;71.80;;;30.10;;
41705;SDS011;27385;51.096;17.190;2023-02-15T06:26:00;67.10;;;28.10;;
41705;SDS011;27385;51.096;17.190;2023-02-15T06:28:31;65.70;;;28.20;;
41705;SDS011;27385;51.096;17.190;2023-02-15T06:31:02;64.60;;;28.50;;
41705;SDS011;27385;51.096;17.190;2023-02-15T06:33:33;71.10;;;28.50;;
41705;SDS011;27385;51.096;17.190;2023-02-15T06:36:04;64.20;;;28.40;;
41705;SDS011;27385;51.096;17.190;2023-02-15T06:38:35;67.60;;;27.30;;
41705;SDS011;27385;51.096;17.190;2023-02-15T06:41:06;66.00;;;28.80;;
41705;SDS011;27385;51.096;17.190;2023-02-15T06:43:37;66.60;;;26.80;;
41705;SDS011;27385;51.096;17.190;2023-02-15T06:46:08;69.00;;;30.00;;
41705;SDS011;27385;51.096;17.190;2023-02-15T06:48:39;68.90;;;29.30;;
41705;SDS011;27385;51.096;17.190;2023-02-15T06:51:10;68.80;;;31.80;;
41705;SDS011;27385;51.096;17.190;2023-02-15T06:53:41;64.40;;;29.70;;
41705;SDS011;27385;51.096;17.190;2023-02-15T06:56:12;94.80;;;44.40;;
41705;SDS011;27385;51.096;17.190;2023-02-15T06:58:43;131.80;;;65.40;;
41705;SDS011;27385;51.096;17.190;2023-02-15T07:01:17;133.30;;;68.10;;
41705;SDS011;27385;51.096;17.190;2023-02-15T07:03:48;194.40;;;99.80;;
41705;SDS011;27385;51.096;17.190;2023-02-15T07:06:19;162.30;;;85.20;;
41705;SDS011;27385;51.096;17.190;2023-02-15T07:08:50;159.10;;;84.00;;
41705;SDS011;27385;51.096;17.190;2023-02-15T07:11:21;128.90;;;66.50;;
41705;SDS011;27385;51.096;17.190;2023-02-15T07:14:10;120.50;;;56.10;;
41705;SDS011;27385;51.096;17.190;2023-02-15T07:16:41;114.10;;;55.50;;
41705;SDS011;27385;51.096;17.190;2023-02-15T07:19:12;102.50;;;50.30;;
41705;SDS011;27385;51.096;17.190;2023-02-15T07:21:44;99.70;;;47.10;;
41705;SDS011;27385;51.096;17.190;2023-02-15T07:24:15;112.20;;;53.60;;
41705;SDS011;27385;51.096;17.190;2023-02-15T07:26:46;93.60;;;42.40;;
41705;SDS011;27385;51.096;17.190;2023-02-15T07:29:17;92.20;;;42.60;;
41705;SDS011;27385;51.096;17.190;2023-02-15T07:31:48;86.90;;;39.90;;
41705;SDS011;27385;51.096;17.190;2023-02-15T07:34:19;82.20;;;38.90;;
41705;SDS011;27385;51.096;17.190;2023-02-15T07:36:51;95.70;;;40.60;;
41705;SDS011;27385;51.096;17.190;2023-02-15T07:39:22;114.30;;;45.70;;
41705;SDS011;27385;51.096;17.190;2023-02-15T07:41:53;118.90;;;46.40;;
41705;SDS011;27385;51.096;17.190;2023-02-15T07:44:24;123.70;;;51.00;;
41705;SDS011;27385;51.096;17.190;2023-02-15T07:46:55;118.60;;;46.80;;
41705;SDS011;27385;51.096;17.190;2023-02-15T07:49:26;120.50;;;46.60;;
41705;SDS011;27385;51.096;17.190;2023-02-15T07:51:58;89.30;;;36.70;;
41705;SDS011;27385;51.096;17.190;2023-02-15T07:54:30;86.10;;;37.80;;
41705;SDS011;27385;51.096;17.190;2023-02-15T07:57:01;75.00;;;33.30;;
41705;SDS011;27385;51.096;17.190;2023-02-15T07:59:33;78.60;;;32.40;;
41705;SDS011;27385;51.096;17.190;2023-02-15T08:02:04;77.20;;;29.50;;
41705;SDS011;27385;51.096;17.190;2023-02-15T08:04:37;74.60;;;30.90;;
41705;SDS011;27385;51.096;17.190;2023-02-15T08:07:08;74.10;;;30.60;;
41705;SDS011;27385;51.096;17.190;2023-02-15T08:09:39;72.50;;;30.30;;
41705;SDS011;27385;51.096;17.190;2023-02-15T08:12:10;79.00;;;32.80;;
41705;SDS011;27385;51.096;17.190;2023-02-15T08:14:41;82.00;;;32.40;;
41705;SDS011;27385;51.096;17.190;2023-02-15T08:17:13;82.00;;;31.10;;
41705;SDS011;27385;51.096;17.190;2023-02-15T08:19:44;76.50;;;31.40;;
41705;SDS011;27385;51.096;17.190;2023-02-15T08:22:15;66.60;;;28.50;;
41705;SDS011;27385;51.096;17.190;2023-02-15T08:24:47;65.10;;;27.40;;
41705;SDS011;27385;51.096;17.190;2023-02-15T08:27:18;75.10;;;30.60;;
41705;SDS011;27385;51.096;17.190;2023-02-15T08:29:54;73.90;;;31.80;;
41705;SDS011;27385;51.096;17.190;2023-02-15T08:32:25;75.50;;;29.90;;
41705;SDS011;27385;51.096;17.190;2023-02-15T08:34:57;74.90;;;30.40;;
41705;SDS011;27385;51.096;17.190;2023-02-15T08:37:28;71.90;;;29.50;;
41705;SDS011;27385;51.096;17.190;2023-02-15T08:39:58;66.90;;;29.80;;
41705;SDS011;27385;51.096;17.190;2023-02-15T08:42:30;59.80;;;27.10;;
41705;SDS011;27385;51.096;17.190;2023-02-15T08:45:03;69.60;;;28.10;;
41705;SDS011;27385;51.096;17.190;2023-02-15T08:47:36;67.50;;;27.60;;
41705;SDS011;27385;51.096;17.190;2023-02-15T08:50:08;66.30;;;26.20;;
41705;SDS011;27385;51.096;17.190;2023-02-15T08:52:39;69.10;;;26.40;;
41705;SDS011;27385;51.096;17.190;2023-02-15T08:55:11;64.30;;;25.50;;
41705;SDS011;27385;51.096;17.190;2023-02-15T08:57:43;62.70;;;26.00;;
41705;SDS011;27385;51.096;17.190;2023-02-15T09:00:16;63.90;;;25.10;;
41705;SDS011;27385;51.096;17.190;2023-02-15T09:02:50;64.00;;;25.90;;
41705;SDS011;27385;51.096;17.190;2023-02-15T09:05:21;64.10;;;26.60;;
41705;SDS011;27385;51.096;17.190;2023-02-15T09:07:52;57.90;;;24.40;;
41705;SDS011;27385;51.096;17.190;2023-02-15T09:10:23;57.30;;;22.80;;
41705;SDS011;27385;51.096;17.190;2023-02-15T09:12:54;57.80;;;23.40;;
41705;SDS011;27385;51.096;17.190;2023-02-15T09:15:26;66.50;;;27.70;;
41705;SDS011;27385;51.096;17.190;2023-02-15T09:17:57;59.40;;;24.80;;
41705;SDS011;27385;51.096;17.190;2023-02-15T09:20:32;58.40;;;24.10;;
41705;SDS011;27385;51.096;17.190;2023-02-15T09:23:05;60.00;;;25.70;;
41705;SDS011;27385;51.096;17.190;2023-02-15T09:25:36;62.50;;;25.60;;
41705;SDS011;27385;51.096;17.190;2023-02-15T09:28:07;60.10;;;25.90;;
41705;SDS011;27385;51.096;17.190;2023-02-15T09:30:38;59.00;;;24.80;;
41705;SDS011;27385;51.096;17.190;2023-02-15T09:33:09;54.60;;;23.90;;
41705;SDS011;27385;51.096;17.190;2023-02-15T09:35:40;59.80;;;26.70;;
41705;SDS011;27385;51.096;17.190;2023-02-15T09:38:11;57.40;;;25.90;;
41705;SDS011;27385;51.096;17.190;2023-02-15T09:40:45;62.40;;;26.00;;
41705;SDS011;27385;51.096;17.190;2023-02-15T09:43:29;62.60;;;26.40;;
41705;SDS011;27385;51.096;17.190;2023-02-15T09:46:12;73.80;;;30.00;;
41705;SDS011;27385;51.096;17.190;2023-02-15T09:48:55;77.40;;;31.20;;
41705;SDS011;27385;51.096;17.190;2023-02-15T09:54:35;62.30;;;27.20;;
41705;SDS011;27385;51.096;17.190;2023-02-15T09:57:18;61.70;;;27.10;;
41705;SDS011;27385;51.096;17.190;2023-02-15T10:00:00;62.70;;;26.80;;
41705;SDS011;27385;51.096;17.190;2023-02-15T10:02:47;60.60;;;23.80;;
41705;SDS011;27385;51.096;17.190;2023-02-15T10:05:35;64.00;;;27.70;;
41705;SDS011;27385;51.096;17.190;2023-02-15T10:11:36;56.60;;;23.70;;
41705;SDS011;27385;51.096;17.190;2023-02-15T10:14:31;54.10;;;22.60;;
41705;SDS011;27385;51.096;17.190;2023-02-15T10:17:23;59.80;;;25.90;;
41705;SDS011;27385;51.096;17.190;2023-02-15T10:20:05;53.50;;;23.00;;
41705;SDS011;27385;51.096;17.190;2023-02-15T10:22:50;56.40;;;24.00;;
41705;SDS011;27385;51.096;17.190;2023-02-15T10:25:39;58.20;;;25.50;;
41705;SDS011;27385;51.096;17.190;2023-02-15T10:28:17;52.40;;;24.20;;
41705;SDS011;27385;51.096;17.190;2023-02-15T10:30:53;61.30;;;26.00;;
41705;SDS011;27385;51.096;17.190;2023-02-15T10:33:36;50.40;;;21.60;;
41705;SDS011;27385;51.096;17.190;2023-02-15T10:36:15;59.80;;;26.70;;
41705;SDS011;27385;51.096;17.190;2023-02-15T10:39:01;54.00;;;24.20;;
41705;SDS011;27385;51.096;17.190;2023-02-15T10:41:37;58.70;;;26.00;;
41705;SDS011;27385;51.096;17.190;2023-02-15T10:44:23;57.80;;;25.90;;
41705;SDS011;27385;51.096;17.190;2023-02-15T10:47:11;59.10;;;25.50;;
41705;SDS011;27385;51.096;17.190;2023-02-15T10:50:01;60.80;;;24.70;;
41705;SDS011;27385;51.096;17.190;2023-02-15T10:52:46;60.90;;;25.50;;
41705;SDS011;27385;51.096;17.190;2023-02-15T10:55:28;61.30;;;29.20;;
41705;SDS011;27385;51.096;17.190;2023-02-15T11:00:41;57.00;;;24.80;;
41705;SDS011;27385;51.096;17.190;2023-02-15T11:03:22;58.40;;;25.70;;
41705;SDS011;27385;51.096;17.190;2023-02-15T11:06:04;64.70;;;28.20;;
41705;SDS011;27385;51.096;17.190;2023-02-15T11:08:39;60.60;;;26.50;;
41705;SDS011;27385;51.096;17.190;2023-02-15T11:11:14;57.90;;;25.00;;
41705;SDS011;27385;51.096;17.190;2023-02-15T11:13:53;64.00;;;29.10;;
41705;SDS011;27385;51.096;17.190;2023-02-15T11:16:29;64.40;;;28.90;;
41705;SDS011;27385;51.096;17.190;2023-02-15T11:19:06;68.50;;;28.20;;
41705;SDS011;27385;51.096;17.190;2023-02-15T11:21:42;62.60;;;26.20;;
41705;SDS011;27385;51.096;17.190;2023-02-15T11:24:18;54.10;;;23.60;;
41705;SDS011;27385;51.096;17.190;2023-02-15T11:26:51;62.50;;;26.40;;
41705;SDS011;27385;51.096;17.190;2023-02-15T11:29:26;58.30;;;26.20;;
41705;SDS011;27385;51.096;17.190;2023-02-15T11:32:03;59.70;;;27.40;;
41705;SDS011;27385;51.096;17.190;2023-02-15T11:34:48;58.60;;;25.80;;
41705;SDS011;27385;51.096;17.190;2023-02-15T11:37:23;53.50;;;23.00;;
41705;SDS011;27385;51.096;17.190;2023-02-15T11:40:03;55.20;;;25.80;;
41705;SDS011;27385;51.096;17.190;2023-02-15T11:42:48;59.50;;;27.60;;
41705;SDS011;27385;51.096;17.190;2023-02-15T11:45:26;71.60;;;29.20;;
41705;SDS011;27385;51.096;17.190;2023-02-15T11:47:58;61.80;;;28.10;;
41705;SDS011;27385;51.096;17.190;2023-02-15T11:50:34;60.20;;;27.40;;
41705;SDS011;27385;51.096;17.190;2023-02-15T11:53:06;60.90;;;26.20;;
41705;SDS011;27385;51.096;17.190;2023-02-15T11:55:42;62.40;;;27.50;;
41705;SDS011;27385;51.096;17.190;2023-02-15T11:58:21;61.00;;;28.90;;
41705;SDS011;27385;51.096;17.190;2023-02-15T12:00:58;63.30;;;28.60;;
41705;SDS011;27385;51.096;17.190;2023-02-15T12:03:42;64.60;;;29.30;;
41705;SDS011;27385;51.096;17.190;2023-02-15T12:06:18;56.40;;;27.70;;
41705;SDS011;27385;51.096;17.190;2023-02-15T12:08:57;61.80;;;27.40;;
41705;SDS011;27385;51.096;17.190;2023-02-15T12:11:36;62.00;;;29.20;;
41705;SDS011;27385;51.096;17.190;2023-02-15T12:14:09;57.40;;;24.80;;
41705;SDS011;27385;51.096;17.190;2023-02-15T12:16:44;56.50;;;26.60;;
41705;SDS011;27385;51.096;17.190;2023-02-15T12:19:24;56.30;;;25.50;;
41705;SDS011;27385;51.096;17.190;2023-02-15T12:21:59;58.90;;;26.10;;
41705;SDS011;27385;51.096;17.190;2023-02-15T12:24:34;55.20;;;26.70;;
41705;SDS011;27385;51.096;17.190;2023-02-15T12:27:15;55.30;;;25.80;;
41705;SDS011;27385;51.096;17.190;2023-02-15T12:29:49;56.70;;;26.40;;
41705;SDS011;27385;51.096;17.190;2023-02-15T12:32:23;53.40;;;23.00;;
41705;SDS011;27385;51.096;17.190;2023-02-15T12:35:00;52.50;;;23.10;;
41705;SDS011;27385;51.096;17.190;2023-02-15T12:37:37;55.70;;;24.30;;
41705;SDS011;27385;51.096;17.190;2023-02-15T12:40:21;54.20;;;23.00;;
41705;SDS011;27385;51.096;17.190;2023-02-15T12:42:55;51.20;;;24.70;;
41705;SDS011;27385;51.096;17.190;2023-02-15T12:45:27;43.40;;;21.10;;
41705;SDS011;27385;51.096;17.190;2023-02-15T12:48:13;47.60;;;21.10;;
41705;SDS011;27385;51.096;17.190;2023-02-15T12:50:46;52.10;;;23.80;;
41705;SDS011;27385;51.096;17.190;2023-02-15T12:53:20;49.80;;;22.30;;
41705;SDS011;27385;51.096;17.190;2023-02-15T12:55:59;48.70;;;21.80;;
41705;SDS011;27385;51.096;17.190;2023-02-15T12:58:32;47.10;;;22.60;;
41705;SDS011;27385;51.096;17.190;2023-02-15T13:01:08;48.50;;;21.40;;
41705;SDS011;27385;51.096;17.190;2023-02-15T13:03:54;51.40;;;23.40;;
41705;SDS011;27385;51.096;17.190;2023-02-15T13:06:27;52.30;;;23.60;;
41705;SDS011;27385;51.096;17.190;2023-02-15T13:09:07;50.90;;;23.10;;
41705;SDS011;27385;51.096;17.190;2023-02-15T13:11:47;46.30;;;21.80;;
41705;SDS011;27385;51.096;17.190;2023-02-15T13:14:19;46.40;;;20.20;;
41705;SDS011;27385;51.096;17.190;2023-02-15T13:16:58;59.60;;;23.10;;
41705;SDS011;27385;51.096;17.190;2023-02-15T13:19:33;48.20;;;22.20;;
41705;SDS011;27385;51.096;17.190;2023-02-15T13:22:12;45.80;;;20.40;;
41705;SDS011;27385;51.096;17.190;2023-02-15T13:24:47;43.80;;;20.80;;
41705;SDS011;27385;51.096;17.190;2023-02-15T13:27:21;50.40;;;22.10;;
41705;SDS011;27385;51.096;17.190;2023-02-15T13:29:56;41.50;;;19.30;;
41705;SDS011;27385;51.096;17.190;2023-02-15T13:32:32;47.60;;;20.90;;
41705;SDS011;27385;51.096;17.190;2023-02-15T13:35:09;46.70;;;21.80;;
41705;SDS011;27385;51.096;17.190;2023-02-15T13:37:48;49.90;;;21.80;;
41705;SDS011;27385;51.096;17.190;2023-02-15T13:40:30;47.90;;;22.30;;
41705;SDS011;27385;51.096;17.190;2023-02-15T13:43:10;40.10;;;18.40;;
41705;SDS011;27385;51.096;17.190;2023-02-15T13:45:55;45.90;;;21.40;;
41705;SDS011;27385;51.096;17.190;2023-02-15T13:48:39;42.00;;;19.40;;
41705;SDS011;27385;51.096;17.190;2023-02-15T13:51:19;39.80;;;17.60;;
41705;SDS011;27385;51.096;17.190;2023-02-15T13:54:00;48.50;;;21.50;;
41705;SDS011;27385;51.096;17.190;2023-02-15T13:56:58;47.90;;;20.20;;
41705;SDS011;27385;51.096;17.190;2023-02-15T13:59:48;40.10;;;18.20;;
41705;SDS011;27385;51.096;17.190;2023-02-15T14:02:38;41.40;;;18.50;;
41705;SDS011;27385;51.096;17.190;2023-02-15T14:05:40;39.60;;;17.10;;
41705;SDS011;27385;51.096;17.190;2023-02-15T14:08:26;45.70;;;19.50;;
41705;SDS011;27385;51.096;17.190;2023-02-15T14:11:15;42.30;;;19.60;;
41705;SDS011;27385;51.096;17.190;2023-02-15T14:14:03;45.10;;;20.00;;
41705;SDS011;27385;51.096;17.190;2023-02-15T14:16:51;45.80;;;21.00;;
41705;SDS011;27385;51.096;17.190;2023-02-15T14:19:31;54.40;;;24.60;;
41705;SDS011;27385;51.096;17.190;2023-02-15T14:22:14;52.60;;;23.30;;
41705;SDS011;27385;51.096;17.190;2023-02-15T14:24:58;45.70;;;21.00;;
41705;SDS011;27385;51.096;17.190;2023-02-15T14:27:54;46.60;;;19.60;;
41705;SDS011;27385;51.096;17.190;2023-02-15T14:30:34;43.90;;;18.30;;
41705;SDS011;27385;51.096;17.190;2023-02-15T14:33:10;39.90;;;18.50;;
41705;SDS011;27385;51.096;17.190;2023-02-15T14:36:00;48.90;;;21.00;;
41705;SDS011;27385;51.096;17.190;2023-02-15T14:38:43;46.90;;;21.40;;
41705;SDS011;27385;51.096;17.190;2023-02-15T14:41:35;48.60;;;21.90;;
41705;SDS011;27385;51.096;17.190;2023-02-15T14:44:16;50.00;;;24.50;;
41705;SDS011;27385;51.096;17.190;2023-02-15T14:46:52;45.20;;;21.80;;
41705;SDS011;27385;51.096;17.190;2023-02-15T14:49:30;47.10;;;21.00;;
41705;SDS011;27385;51.096;17.190;2023-02-15T14:52:05;49.30;;;22.30;;
41705;SDS011;27385;51.096;17.190;2023-02-15T14:54:54;56.00;;;25.50;;
41705;SDS011;27385;51.096;17.190;2023-02-15T14:57:27;53.30;;;24.40;;
41705;SDS011;27385;51.096;17.190;2023-02-15T15:00:02;52.20;;;24.20;;
41705;SDS011;27385;51.096;17.190;2023-02-15T15:02:50;52.60;;;23.00;;
41705;SDS011;27385;51.096;17.190;2023-02-15T15:05:24;53.60;;;24.50;;
41705;SDS011;27385;51.096;17.190;2023-02-15T15:08:02;48.50;;;23.40;;
41705;SDS011;27385;51.096;17.190;2023-02-15T15:10:42;47.20;;;22.10;;
41705;SDS011;27385;51.096;17.190;2023-02-15T15:16:27;54.90;;;23.80;;
41705;SDS011;27385;51.096;17.190;2023-02-15T15:19:00;52.50;;;24.40;;